Time;durP1;ratioP1;P1;durP2;ratioP2;P2;SDS_P1;SDS_P2;PMS_P1;PMS_P2;Temp;Humidity;BMP_temperature;BMP_pressure;BME280_temperature;BME280_humidity;BME280_pressure;Samples;Min_cycle;Max_cycle;Signal;HPM_P1;HPM_P2
2023/12/04 00:01:46;;;;;;;8.57;3.95;;;;;;;-0.35;56.24;100081.47;10518914;28;20105;-67
2023/12/04 00:06:48;;;;;;;8.35;4.22;;;;;;;-0.31;56.14;100067.72;10518736;28;20182;-67
2023/12/04 00:11:50;;;;;;;6.90;3.90;;;;;;;-0.28;56.44;100073.69;10518808;28;20047;-67
2023/12/04 00:16:52;;;;;;;12.50;4.47;;;;;;;-0.31;56.25;100049.72;10517584;28;20040;-68
2023/12/04 00:21:54;;;;;;;8.90;4.65;;;;;;;-0.32;56.11;100045.47;10518200;28;20059;-67
2023/12/04 00:26:56;;;;;;;8.18;4.18;;;;;;;-0.32;56.17;100040.34;10518259;28;20400;-67
2023/12/04 00:31:58;;;;;;;8.07;4.47;;;;;;;-0.28;56.17;100045.41;10518164;28;20048;-67
2023/12/04 00:37:00;;;;;;;7.68;3.58;;;;;;;-0.23;56.03;100035.94;10517429;28;20106;-67
2023/12/04 00:42:02;;;;;;;8.45;3.67;;;;;;;-0.37;56.34;100015.56;10498998;28;20052;-67
2023/12/04 00:47:04;;;;;;;7.13;4.10;;;;;;;-0.49;56.34;100008.88;10517495;28;20136;-67
2023/12/04 00:52:06;;;;;;;9.43;4.85;;;;;;;-0.62;56.57;100007.38;10516721;28;20095;-68
2023/12/04 00:57:08;;;;;;;9.32;4.40;;;;;;;-0.70;56.55;100005.75;10516929;28;20091;-67
2023/12/04 01:02:10;;;;;;;7.82;3.58;;;;;;;-0.78;56.82;99999.88;10515758;28;20048;-66
2023/12/04 01:07:12;;;;;;;9.27;4.35;;;;;;;-0.84;57.05;99992.25;10515983;28;20135;-67
2023/12/04 01:12:14;;;;;;;9.38;4.00;;;;;;;-0.97;57.48;100003.53;10514970;28;20139;-68
2023/12/04 01:17:16;;;;;;;6.90;3.67;;;;;;;-1.00;57.31;100001.84;10516052;28;20047;-67
2023/12/04 01:22:18;;;;;;;8.82;3.95;;;;;;;-0.97;57.36;100006.97;10484945;28;20048;-68
2023/12/04 01:27:20;;;;;;;9.38;5.05;;;;;;;-1.08;57.41;99998.53;10522645;28;20488;-67
2023/12/04 01:32:22;;;;;;;9.63;4.28;;;;;;;-1.11;57.49;99998.56;10504824;28;20078;-66
2023/12/04 01:37:24;;;;;;;6.53;3.42;;;;;;;-1.21;57.94;99990.09;10506118;28;20473;-67
2023/12/04 01:42:26;;;;;;;9.65;4.20;;;;;;;-1.22;57.70;99987.56;10523246;28;20148;-68
2023/12/04 01:47:28;;;;;;;10.65;4.05;;;;;;;-1.11;57.78;100000.28;10523781;28;20064;-68
2023/12/04 01:52:31;;;;;;;9.57;4.30;;;;;;;-1.09;57.67;99985.72;10504473;28;20043;-67
2023/12/04 01:57:34;;;;;;;11.05;4.50;;;;;;;-1.13;57.91;99990.03;10523798;28;20043;-67
2023/12/04 02:02:36;;;;;;;8.52;3.55;;;;;;;-1.09;57.94;99983.16;10522398;28;20106;-67
2023/12/04 02:07:41;;;;;;;8.23;3.72;;;;;;;-1.20;57.97;99973.88;10523666;28;20077;-68
2023/12/04 02:12:43;;;;;;;6.57;3.03;;;;;;;-1.29;58.08;99973.13;10523336;28;20151;-67
2023/12/04 02:17:45;;;;;;;10.20;3.90;;;;;;;-1.40;58.39;99962.13;10487996;28;20924;-67
2023/12/04 02:22:47;;;;;;;7.88;3.28;;;;;;;-1.37;58.31;99952.66;10522794;28;20044;-68
2023/12/04 02:27:52;;;;;;;7.15;3.35;;;;;;;-1.46;58.53;99946.81;10523246;28;20059;-67
2023/12/04 02:32:56;;;;;;;10.63;4.28;;;;;;;-1.56;58.87;99950.34;10520633;28;20136;-67
2023/12/04 02:38:00;;;;;;;10.07;3.67;;;;;;;-1.59;58.92;99938.38;10501146;28;20139;-67
2023/12/04 02:43:02;;;;;;;6.80;3.85;;;;;;;-1.54;59.07;99931.50;10521434;28;20127;-67
2023/12/04 02:48:05;;;;;;;9.38;4.35;;;;;;;-1.46;58.78;99918.59;10522228;28;20923;-67
2023/12/04 02:53:07;;;;;;;7.95;4.15;;;;;;;-1.65;59.29;99911.97;10521828;28;20043;-67
2023/12/04 02:58:09;;;;;;;8.63;4.55;;;;;;;-1.79;59.77;99908.69;10520610;28;20044;-68
2023/12/04 03:03:11;;;;;;;9.82;4.28;;;;;;;-1.72;59.38;99910.34;10520147;28;20454;-67
2023/12/04 03:08:13;;;;;;;8.90;4.22;;;;;;;-1.78;59.13;99901.00;10520190;28;20968;-67
2023/12/04 03:13:15;;;;;;;9.38;4.13;;;;;;;-1.71;59.13;99894.94;10486646;28;20058;-67
2023/12/04 03:18:17;;;;;;;7.47;3.92;;;;;;;-1.69;59.03;99879.53;10520988;28;20071;-68
2023/12/04 03:23:19;;;;;;;7.82;4.22;;;;;;;-1.69;59.12;99874.41;10520492;28;20060;-67
2023/12/04 03:28:21;;;;;;;8.27;3.60;;;;;;;-1.72;59.30;99869.31;10520026;28;20051;-68
2023/12/04 03:33:23;;;;;;;10.55;4.45;;;;;;;-1.80;59.30;99864.28;10519702;28;20056;-67
2023/12/04 03:38:25;;;;;;;9.82;4.05;;;;;;;-1.75;59.48;99862.50;10516752;28;20052;-67
2023/12/04 03:43:27;;;;;;;10.20;4.00;;;;;;;-1.80;59.61;99854.03;10517869;28;20062;-68
2023/12/04 03:48:29;;;;;;;10.40;4.40;;;;;;;-1.66;59.53;99853.88;10500413;28;20040;-67
2023/12/04 03:53:31;;;;;;;10.13;3.88;;;;;;;-1.67;59.27;99842.75;10516957;28;20071;-68
2023/12/04 03:58:33;;;;;;;8.68;4.15;;;;;;;-1.62;59.52;99845.28;10518489;28;20044;-67
2023/12/04 04:03:35;;;;;;;10.07;3.88;;;;;;;-1.52;59.51;99836.59;10531499;28;20052;-68
2023/12/04 04:08:37;;;;;;;6.70;3.70;;;;;;;-1.46;59.42;99831.41;10500485;28;20135;-67
2023/12/04 04:13:39;;;;;;;8.30;4.18;;;;;;;-1.41;59.43;99839.91;10518162;28;20052;-67
2023/12/04 04:18:42;;;;;;;7.80;4.35;;;;;;;-1.34;59.43;99838.94;10517728;28;20759;-68
2023/12/04 04:23:45;;;;;;;9.13;3.65;;;;;;;-1.34;59.31;99846.63;10498702;28;20052;-67
2023/12/04 04:28:47;;;;;;;8.77;3.88;;;;;;;-1.34;59.30;99837.22;10517697;28;20028;-67
2023/12/04 04:33:49;;;;;;;7.57;3.97;;;;;;;-1.34;59.24;99841.50;10499105;28;20040;-67
2023/12/04 04:38:51;;;;;;;9.02;4.13;;;;;;;-1.53;58.96;99834.91;10517661;28;20044;-67
2023/12/04 04:43:53;;;;;;;8.75;4.25;;;;;;;-1.69;59.30;99841.06;10517551;28;20047;-67
2023/12/04 04:48:55;;;;;;;8.85;4.53;;;;;;;-1.98;59.69;99830.31;10496381;28;20127;-67
2023/12/04 04:53:57;;;;;;;9.02;4.72;;;;;;;-2.05;59.82;99834.66;10509284;28;20172;-68
2023/12/04 04:58:59;;;;;;;8.38;3.90;;;;;;;-2.15;59.98;99821.09;10507020;28;20138;-68
2023/12/04 05:04:01;;;;;;;8.35;3.90;;;;;;;-2.11;59.82;99814.22;10506320;28;20058;-67
2023/12/04 05:09:04;;;;;;;8.75;4.22;;;;;;;-2.05;59.93;99806.47;10494331;28;20134;-67
2023/12/04 05:14:06;;;;;;;8.45;4.57;;;;;;;-2.10;59.79;99810.78;10509690;28;20561;-68
2023/12/04 05:19:08;;;;;;;10.85;4.75;;;;;;;-2.18;59.76;99792.09;10512624;28;20385;-67
2023/12/04 05:24:10;;;;;;;10.75;4.50;;;;;;;-2.34;60.25;99781.16;10504203;28;20131;-68
2023/12/04 05:29:12;;;;;;;9.68;4.45;;;;;;;-2.39;60.41;99775.25;10492764;28;20492;-68
2023/12/04 05:34:14;;;;;;;7.28;3.33;;;;;;;-2.30;60.25;99772.59;10505004;28;20052;-68
2023/12/04 05:39:16;;;;;;;7.90;3.15;;;;;;;-2.14;60.15;99763.88;10511603;28;20130;-68
2023/12/04 05:44:18;;;;;;;8.05;3.88;;;;;;;-2.08;60.23;99758.69;10510969;28;20054;-68
2023/12/04 05:49:21;;;;;;;13.07;4.78;;;;;;;-2.01;60.05;99756.91;10504678;28;20044;-68
2023/12/04 05:54:23;;;;;;;8.25;3.72;;;;;;;-2.01;60.05;99760.31;10490090;28;20071;-68
2023/12/04 05:59:26;;;;;;;8.40;3.85;;;;;;;-2.00;59.93;99754.31;10511390;28;20055;-67
2023/12/04 06:04:30;;;;;;;10.57;5.07;;;;;;;-1.95;59.95;99750.84;10525569;28;20126;-68
2023/12/04 06:09:32;;;;;;;10.35;4.45;;;;;;;-1.86;60.06;99763.56;10516952;28;20131;-68
2023/12/04 06:14:34;;;;;;;11.75;5.15;;;;;;;-1.83;59.67;99759.22;10522970;28;20075;-67
2023/12/04 06:19:36;;;;;;;10.00;4.45;;;;;;;-1.88;59.41;99757.59;10519557;28;20072;-67
2023/12/04 06:24:40;;;;;;;8.40;3.90;;;;;;;-2.02;59.87;99758.59;10521703;28;20385;-68
2023/12/04 06:29:43;;;;;;;11.48;4.97;;;;;;;-2.15;59.83;99734.00;10521260;28;20055;-68
2023/12/04 06:34:46;;;;;;;7.90;4.10;;;;;;;-2.23;59.97;99734.97;10521869;28;20052;-66
2023/12/04 06:39:49;;;;;;;8.98;4.68;;;;;;;-2.38;59.71;99723.16;10521540;28;20040;-66
2023/12/04 06:44:52;;;;;;;12.50;5.07;;;;;;;-2.39;59.98;99710.38;10496283;28;20044;-66
2023/12/04 06:49:54;;;;;;;10.38;4.03;;;;;;;-2.16;59.57;99696.44;10520019;28;20119;-67
2023/12/04 06:54:56;;;;;;;7.75;3.83;;;;;;;-2.27;59.76;99690.63;10519734;28;20198;-66
2023/12/04 06:59:58;;;;;;;8.23;3.95;;;;;;;-2.06;59.60;99687.75;10518963;28;20562;-66
2023/12/04 07:05:00;;;;;;;8.57;3.95;;;;;;;-2.04;59.34;99677.50;10502189;28;20132;-65
2023/12/04 07:10:02;;;;;;;10.30;3.83;;;;;;;-2.19;59.15;99665.75;10519147;28;20132;-66
2023/12/04 07:15:04;;;;;;;7.95;3.60;;;;;;;-2.12;59.61;99653.69;10518901;28;20160;-66
2023/12/04 07:20:06;;;;;;;7.15;3.90;;;;;;;-1.99;59.33;99650.09;10518729;28;20052;-66
2023/12/04 07:25:08;;;;;;;14.02;3.92;;;;;;;-1.74;59.14;99658.28;10520132;28;20048;-68
2023/12/04 07:30:11;;;;;;;9.55;4.20;;;;;;;-1.63;58.67;99664.94;10519363;28;20036;-68
2023/12/04 07:35:13;;;;;;;9.02;4.35;;;;;;;-1.62;58.45;99660.69;10519472;28;20610;-68
2023/12/04 07:40:15;;;;;;;9.05;4.45;;;;;;;-1.52;58.25;99657.09;10518989;28;20055;-68
2023/12/04 07:45:17;;;;;;;9.93;4.22;;;;;;;-1.42;58.36;99654.38;10518911;28;20048;-67
2023/12/04 07:50:20;;;;;;;12.13;4.55;;;;;;;-1.34;58.21;99651.66;10518183;28;20128;-68
2023/12/04 07:55:22;;;;;;;6.97;3.90;;;;;;;-1.15;58.09;99651.34;10498829;28;20059;-66
2023/12/04 08:00:25;;;;;;;12.10;3.90;;;;;;;-1.25;57.86;99646.41;10508284;28;20043;-67
2023/12/04 08:05:28;;;;;;;8.13;4.13;;;;;;;-1.18;57.61;99647.97;10512055;28;20403;-67
2023/12/04 08:10:30;;;;;;;10.57;3.92;;;;;;;-1.12;57.31;99644.47;10514227;28;20101;-68
2023/12/04 08:15:32;;;;;;;9.70;3.97;;;;;;;-1.03;57.26;99640.03;10512524;28;20048;-69
2023/12/04 08:20:34;;;;;;;11.07;4.40;;;;;;;-1.18;57.05;99622.31;10513703;28;20052;-68
2023/12/04 08:25:42;;;;;;;11.43;4.50;;;;;;;-0.92;56.41;99620.13;10511894;28;20130;-68
2023/12/04 08:30:44;;;;;;;11.35;4.60;;;;;;;-0.89;56.81;99616.66;10512593;28;20044;-69
2023/12/04 08:35:47;;;;;;;7.53;3.63;;;;;;;-0.65;56.35;99614.47;10527690;28;20040;-67
2023/12/04 08:40:49;;;;;;;7.75;3.60;;;;;;;-0.57;56.08;99602.34;10513237;28;20116;-68
2023/12/04 08:45:51;;;;;;;9.07;4.13;;;;;;;-0.35;55.75;99597.59;10511881;28;20051;-69
2023/12/04 08:50:53;;;;;;;7.15;3.78;;;;;;;-0.22;55.60;99599.03;10505399;28;20502;-68
2023/12/04 08:55:57;;;;;;;8.18;3.60;;;;;;;-0.01;55.17;99585.72;10509576;28;20119;-68
2023/12/04 09:00:59;;;;;;;7.80;3.10;;;;;;;0.03;54.88;99581.34;10511084;28;20051;-69
2023/12/04 09:06:01;;;;;;;9.50;3.75;;;;;;;-0.16;54.76;99574.91;10509871;28;20070;-69
2023/12/04 09:11:03;;;;;;;10.32;3.40;;;;;;;-0.25;55.12;99577.69;10511401;28;20650;-68
2023/12/04 09:16:24;;;;;;;6.15;3.50;;;;;;;-0.13;54.40;99572.28;10495761;28;20063;-67
2023/12/04 09:21:26;;;;;;;7.95;3.90;;;;;;;-0.14;54.60;99570.59;10511962;28;20102;-67
2023/12/04 09:26:29;;;;;;;8.80;4.45;;;;;;;-0.06;54.75;99566.97;10504678;28;20529;-67
2023/12/04 09:31:31;;;;;;;7.53;3.75;;;;;;;0.04;54.42;99565.88;10494839;28;21020;-67
2023/12/04 09:36:33;;;;;;;8.38;3.70;;;;;;;0.05;54.38;99572.72;10526186;28;20044;-67
2023/12/04 09:41:35;;;;;;;10.00;4.28;;;;;;;0.06;54.57;99558.13;10509892;28;20044;-67
2023/12/04 09:46:38;;;;;;;7.95;3.45;;;;;;;0.19;54.55;99565.53;10499644;28;20068;-67
2023/12/04 09:51:40;;;;;;;7.85;3.83;;;;;;;0.29;54.52;99561.84;10520184;28;20272;-67
2023/12/04 09:56:43;;;;;;;7.20;3.40;;;;;;;0.44;54.48;99556.31;10518529;28;20683;-67
2023/12/04 10:01:47;;;;;;;7.25;3.47;;;;;;;0.38;54.08;99548.75;10532361;28;20067;-67
2023/12/04 10:06:52;;;;;;;7.97;3.65;;;;;;;0.30;54.35;99553.25;10518168;28;20075;-67
2023/12/04 10:11:56;;;;;;;8.95;4.20;;;;;;;0.31;54.03;99551.53;10519699;28;20040;-67
2023/12/04 10:16:59;;;;;;;7.43;4.03;;;;;;;0.05;54.36;99552.16;10517449;28;20143;-67
2023/12/04 10:22:02;;;;;;;7.72;3.28;;;;;;;0.15;54.22;99539.91;10515615;28;20043;-68
2023/12/04 10:27:08;;;;;;;8.57;3.65;;;;;;;0.19;54.10;99531.25;10514305;28;20078;-67
2023/12/04 10:32:11;;;;;;;8.15;3.50;;;;;;;0.32;53.88;99504.38;10500509;28;20052;-67
2023/12/04 10:37:14;;;;;;;8.52;3.45;;;;;;;0.23;53.97;99482.28;10516513;28;20042;-67
2023/12/04 10:42:27;;;;;;;8.48;3.38;;;;;;;0.18;53.59;99466.13;10516569;28;20048;-67
2023/12/04 10:47:31;;;;;;;7.78;4.05;;;;;;;0.24;54.31;99460.00;10499386;28;20040;-67
2023/12/04 10:52:36;;;;;;;9.52;4.10;;;;;;;0.51;54.35;99461.81;10516245;28;20135;-67
2023/12/04 10:57:43;;;;;;;10.18;4.40;;;;;;;0.62;53.73;99457.25;10512761;28;20039;-67
2023/12/04 11:02:48;;;;;;;7.78;3.25;;;;;;;0.63;53.71;99446.06;10509582;28;20066;-67
2023/12/04 11:07:54;;;;;;;5.28;3.30;;;;;;;0.50;53.55;99437.81;10510406;28;20052;-68
2023/12/04 11:13:21;;;;;;;8.18;3.85;;;;;;;0.32;53.81;99422.88;10509630;28;20407;-67
2023/12/04 11:18:26;;;;;;;6.53;3.30;;;;;;;0.26;54.07;99411.94;10510651;28;20543;-67
2023/12/04 11:23:31;;;;;;;9.00;3.35;;;;;;;0.40;54.27;99391.84;10513940;28;20048;-67
2023/12/04 11:28:34;;;;;;;7.95;3.40;;;;;;;0.41;53.79;99386.63;10511116;28;20558;-67
2023/12/04 11:33:38;;;;;;;7.50;3.60;;;;;;;0.28;54.19;99387.03;10511640;28;20044;-67
2023/12/04 11:38:48;;;;;;;8.30;3.40;;;;;;;0.40;54.58;99366.94;10496148;28;20040;-68
2023/12/04 11:43:52;;;;;;;7.97;3.50;;;;;;;0.41;55.13;99365.22;10514576;28;20055;-67
2023/12/04 11:49:26;;;;;;;7.65;3.28;;;;;;;0.20;56.92;99351.22;10513883;28;20044;-68
2023/12/04 11:54:28;;;;;;;5.88;3.28;;;;;;;0.07;57.56;99349.03;10515109;28;20492;-67
2023/12/04 11:59:37;;;;;;;6.15;2.95;;;;;;;0.06;58.01;99340.47;10493737;28;20048;-67
2023/12/04 12:04:40;;;;;;;5.90;2.42;;;;;;;-0.10;58.43;99325.47;10511812;28;20051;-67
2023/12/04 12:09:42;;;;;;;5.35;2.45;;;;;;;0.04;59.16;99318.25;10511826;28;20439;-67
2023/12/04 12:14:44;;;;;;;5.72;2.55;;;;;;;0.30;58.36;99315.81;10489471;28;20842;-67
2023/12/04 12:19:47;;;;;;;6.05;2.67;;;;;;;0.39;58.28;99303.53;10512665;28;20043;-67
2023/12/04 12:24:50;;;;;;;6.88;2.85;;;;;;;0.49;58.88;99293.81;10515304;28;20052;-67
2023/12/04 12:29:52;;;;;;;6.47;2.78;;;;;;;0.37;58.68;99286.44;10503836;28;20543;-67
2023/12/04 12:34:54;;;;;;;6.40;3.45;;;;;;;0.24;58.92;99278.25;10514585;28;20512;-67
2023/12/04 12:39:57;;;;;;;9.00;3.85;;;;;;;-0.13;59.44;99258.75;10511386;28;20054;-67
2023/12/04 12:45:02;;;;;;;5.97;3.75;;;;;;;-0.21;59.78;99248.69;10514823;28;20052;-67
2023/12/04 12:50:08;;;;;;;8.02;3.42;;;;;;;-0.06;60.13;99237.97;10513817;28;20154;-67
2023/12/04 12:55:10;;;;;;;6.22;3.00;;;;;;;-0.05;59.89;99241.41;10495822;28;20444;-67
2023/12/04 13:00:13;;;;;;;9.23;4.13;;;;;;;-0.25;60.42;99235.97;10493214;28;20555;-67
2023/12/04 13:05:17;;;;;;;8.48;3.97;;;;;;;-0.36;60.90;99231.97;10492038;28;20859;-67
2023/12/04 13:10:19;;;;;;;5.97;3.42;;;;;;;-0.28;61.08;99213.75;10513978;28;20048;-67
2023/12/04 13:15:21;;;;;;;5.85;3.15;;;;;;;-0.29;61.14;99201.78;10512590;28;20142;-67
2023/12/04 13:20:23;;;;;;;8.93;4.22;;;;;;;-0.25;61.28;99194.84;10500832;28;20044;-67
2023/12/04 13:25:26;;;;;;;7.22;2.90;;;;;;;-0.23;61.32;99187.94;10522398;28;20048;-67
2023/12/04 13:30:34;;;;;;;6.10;3.08;;;;;;;-0.18;61.35;99181.78;10521776;28;20054;-67
2023/12/04 13:35:36;;;;;;;8.60;3.88;;;;;;;-0.14;61.47;99169.69;10522339;28;20051;-67
2023/12/04 13:40:39;;;;;;;7.75;3.63;;;;;;;-0.09;61.44;99172.97;10519738;28;20042;-67
2023/12/04 13:45:41;;;;;;;7.82;3.72;;;;;;;0.03;61.41;99162.34;10513397;28;20052;-67
2023/12/04 13:50:43;;;;;;;7.43;3.42;;;;;;;0.06;61.34;99147.66;10521815;28;20122;-67
2023/12/04 13:56:12;;;;;;;6.72;3.22;;;;;;;0.24;61.13;99147.09;10519325;28;20044;-67
2023/12/04 14:01:14;;;;;;;6.28;3.10;;;;;;;0.22;61.29;99132.63;10517429;28;20625;-68
2023/12/04 14:06:17;;;;;;;7.93;3.10;;;;;;;0.27;61.55;99125.59;10516108;28;20055;-67
2023/12/04 14:11:19;;;;;;;7.88;3.33;;;;;;;0.22;61.38;99123.16;10519450;28;20039;-67
2023/12/04 14:16:21;;;;;;;5.03;2.80;;;;;;;0.12;61.52;99110.63;10517577;28;20084;-68
2023/12/04 14:21:24;;;;;;;5.45;3.13;;;;;;;0.10;61.85;99104.69;10518727;28;20040;-68
2023/12/04 14:26:27;;;;;;;6.35;3.58;;;;;;;0.18;61.37;99093.28;10531665;27;20068;-67
2023/12/04 14:31:30;;;;;;;7.60;3.75;;;;;;;0.14;61.95;99089.13;10516118;28;20765;-68
2023/12/04 14:36:32;;;;;;;7.03;3.40;;;;;;;0.11;61.79;99075.53;10518183;28;20048;-68
2023/12/04 14:41:36;;;;;;;6.75;3.45;;;;;;;0.11;62.15;99073.81;10518488;28;20496;-68
2023/12/04 14:46:38;;;;;;;6.53;3.03;;;;;;;0.11;62.04;99055.84;10481688;28;20418;-68
2023/12/04 14:51:40;;;;;;;7.88;3.40;;;;;;;0.08;62.09;99063.63;10515774;28;20160;-68
2023/12/04 14:57:42;;;;;;;6.18;3.53;;;;;;;0.06;62.05;99059.41;10495053;28;20147;-67
2023/12/04 15:18:31;;;;;;;5.78;3.30;;;;;;;-0.23;63.05;99037.22;10483429;28;20097;-66
2023/12/04 15:23:19;;;;;;;9.27;3.75;;;;;;;-0.26;63.28;99042.44;10516582;28;20058;-67
2023/12/04 15:28:22;;;;;;;8.82;3.85;;;;;;;-0.40;63.31;99031.72;10514428;28;20048;-67
2023/12/04 15:33:26;;;;;;;7.50;3.75;;;;;;;-0.35;63.25;99034.97;10517075;28;20624;-67
2023/12/04 15:38:29;;;;;;;9.80;4.10;;;;;;;-0.41;63.19;99028.31;10514025;28;20044;-67
2023/12/04 15:43:31;;;;;;;6.65;3.22;;;;;;;-0.62;63.73;99023.81;10514166;28;20052;-67
2023/12/04 15:48:34;;;;;;;8.52;4.00;;;;;;;-0.65;64.07;99013.63;10509274;28;20129;-66
2023/12/04 15:53:36;;;;;;;7.47;3.30;;;;;;;-0.60;63.93;99018.63;10531172;27;20048;-67
2023/12/04 15:58:39;;;;;;;7.75;3.45;;;;;;;-0.61;64.22;99011.81;10508539;28;20982;-67
2023/12/04 16:03:41;;;;;;;7.47;3.72;;;;;;;-0.48;63.82;99010.56;10515253;28;20052;-67
2023/12/04 16:08:44;;;;;;;6.28;3.10;;;;;;;-0.39;64.24;98998.28;10510138;28;21239;-67
2023/12/04 16:13:46;;;;;;;6.50;3.20;;;;;;;-0.25;63.67;98999.59;10512928;28;20149;-67
2023/12/04 16:18:49;;;;;;;8.60;3.58;;;;;;;-0.32;63.82;98988.66;10493595;28;20395;-67
2023/12/04 16:23:51;;;;;;;7.53;3.40;;;;;;;-0.36;64.20;98984.50;10509248;28;20108;-67
2023/12/04 16:28:53;;;;;;;7.53;3.78;;;;;;;-0.42;64.09;98972.69;10513927;28;20048;-67
2023/12/04 16:33:57;;;;;;;7.90;4.30;;;;;;;-0.38;64.33;98974.28;10513973;28;20510;-67
2023/12/04 16:38:59;;;;;;;8.85;4.07;;;;;;;-0.23;64.70;98970.41;10512611;28;20051;-67
2023/12/04 16:44:01;;;;;;;6.22;3.55;;;;;;;-0.20;64.10;98964.31;10505377;28;20051;-67
2023/12/04 16:49:03;;;;;;;8.70;3.50;;;;;;;-0.25;64.58;98950.78;10510095;28;20765;-66
2023/12/04 16:54:06;;;;;;;6.65;3.40;;;;;;;-0.09;64.69;98944.25;10511794;28;20067;-67
2023/12/04 16:59:08;;;;;;;6.35;3.03;;;;;;;-0.11;64.32;98946.03;10490293;28;20465;-68
2023/12/04 17:04:12;;;;;;;4.63;2.67;;;;;;;0.06;63.96;98931.72;10510802;28;20047;-68
2023/12/04 17:09:15;;;;;;;8.35;4.03;;;;;;;-0.07;64.26;98929.63;10501680;28;20127;-67
2023/12/04 17:14:17;;;;;;;6.15;3.30;;;;;;;-0.05;64.33;98938.13;10508785;28;20512;-66
2023/12/04 17:19:20;;;;;;;7.50;3.42;;;;;;;-0.11;64.31;98916.06;10488193;28;20055;-67
2023/12/04 17:24:22;;;;;;;7.63;3.47;;;;;;;-0.16;64.70;98911.94;10511361;28;20638;-67
2023/12/04 17:29:25;;;;;;;8.23;3.60;;;;;;;-0.11;64.61;98910.06;10506243;28;20146;-67
2023/12/04 17:34:28;;;;;;;9.32;3.78;;;;;;;-0.15;64.50;98896.47;10510502;28;20043;-66
2023/12/04 17:39:30;;;;;;;6.20;3.15;;;;;;;-0.08;64.41;98907.38;10486775;28;20492;-67
2023/12/04 17:44:32;;;;;;;10.30;3.78;;;;;;;-0.09;64.57;98895.44;10471244;28;20055;-66
2023/12/04 17:49:35;;;;;;;7.50;3.08;;;;;;;0.00;64.18;98885.66;10507426;28;20044;-66
2023/12/04 17:54:37;;;;;;;6.72;3.30;;;;;;;0.07;64.17;98886.31;10508915;28;20134;-66
2023/12/04 17:59:39;;;;;;;7.60;3.55;;;;;;;0.01;64.62;98871.09;10508715;28;20066;-67
2023/12/04 18:04:43;;;;;;;8.18;3.63;;;;;;;0.22;64.23;98876.34;10515360;28;20060;-66
2023/12/04 18:09:45;;;;;;;9.52;3.88;;;;;;;0.25;63.81;98877.97;10515761;28;20052;-66
2023/12/04 18:14:50;;;;;;;6.68;3.28;;;;;;;0.18;64.21;98858.53;10518590;28;20823;-66
2023/12/04 18:19:53;;;;;;;6.38;3.63;;;;;;;0.11;64.33;98851.91;10513272;28;20043;-67
2023/12/04 18:24:56;;;;;;;7.70;4.22;;;;;;;0.12;64.39;98845.84;10517171;28;20040;-66
2023/12/04 18:29:58;;;;;;;6.15;3.28;;;;;;;0.09;64.51;98835.69;10511801;28;20051;-67
2023/12/04 18:35:01;;;;;;;5.97;3.08;;;;;;;0.23;64.47;98824.03;10516777;28;20529;-67
2023/12/04 18:40:07;;;;;;;5.82;2.85;;;;;;;0.26;64.44;98821.34;10515380;28;20787;-67
2023/12/04 18:45:09;;;;;;;6.53;3.30;;;;;;;0.16;64.91;98814.03;10518431;28;20052;-67
2023/12/04 18:50:12;;;;;;;8.73;3.40;;;;;;;0.33;64.79;98816.81;10498424;28;20050;-67
2023/12/04 18:55:14;;;;;;;5.88;3.20;;;;;;;0.31;65.07;98805.75;10496812;28;20040;-67
2023/12/04 19:00:17;;;;;;;6.50;3.03;;;;;;;0.58;64.75;98803.91;10496832;28;20036;-67
2023/12/04 19:05:20;;;;;;;6.00;2.97;;;;;;;0.61;64.78;98802.03;10516586;28;20040;-67
2023/12/04 19:10:23;;;;;;;7.85;3.72;;;;;;;0.74;64.67;98792.97;10505260;28;20099;-67
2023/12/04 19:15:26;;;;;;;8.85;4.32;;;;;;;0.85;64.49;98801.09;10502750;28;20054;-67
2023/12/04 19:20:30;;;;;;;8.93;4.47;;;;;;;0.80;64.53;98784.16;10510168;28;20592;-67
2023/12/04 19:25:35;;;;;;;8.10;3.47;;;;;;;0.74;64.68;98776.69;10506087;28;20108;-67
2023/12/04 19:30:51;;;;;;;6.15;3.22;;;;;;;0.73;64.84;98768.13;10507782;28;20047;-68
2023/12/04 19:35:53;;;;;;;6.63;3.35;;;;;;;0.64;65.25;98760.78;10488253;28;20473;-67
2023/12/04 19:40:55;;;;;;;6.57;3.28;;;;;;;0.76;65.58;98765.44;10477446;28;20064;-66
2023/12/04 19:45:57;;;;;;;6.70;3.88;;;;;;;0.92;65.23;98760.53;10510850;28;20044;-67
2023/12/04 19:51:03;;;;;;;6.63;3.67;;;;;;;1.00;65.17;98753.34;10508456;28;20135;-67
2023/12/04 19:56:09;;;;;;;6.05;3.22;;;;;;;0.87;65.43;98747.84;10481014;28;20113;-67
2023/12/04 20:01:23;;;;;;;5.47;3.25;;;;;;;0.97;65.53;98744.00;10512874;28;20793;-67
2023/12/04 20:06:26;;;;;;;6.55;3.55;;;;;;;0.96;65.37;98741.50;10513210;28;20465;-66
2023/12/04 20:11:28;;;;;;;8.73;3.70;;;;;;;0.92;65.53;98745.94;10512997;28;20048;-66
2023/12/04 20:16:30;;;;;;;7.75;3.83;;;;;;;0.86;65.68;98735.88;10515143;28;20409;-67
2023/12/04 20:21:32;;;;;;;6.45;3.72;;;;;;;0.74;65.96;98733.78;10513542;28;20370;-67
2023/12/04 20:26:34;;;;;;;9.18;3.95;;;;;;;0.79;65.82;98737.00;10512815;28;20138;-67
2023/12/04 20:31:36;;;;;;;7.93;3.58;;;;;;;0.70;66.25;98724.50;10516874;28;20040;-66
2023/12/04 20:36:39;;;;;;;9.43;4.43;;;;;;;0.70;66.32;98719.38;10510272;28;20054;-67
2023/12/04 20:41:41;;;;;;;5.97;3.30;;;;;;;0.74;66.10;98707.22;10493886;28;20047;-67
2023/12/04 20:46:43;;;;;;;7.20;3.55;;;;;;;0.69;66.34;98702.25;10496881;28;20044;-67
2023/12/04 20:51:45;;;;;;;5.50;2.85;;;;;;;0.74;66.55;98697.75;10512649;28;20048;-67
2023/12/04 20:56:47;;;;;;;7.55;3.90;;;;;;;0.85;66.30;98694.78;10516190;28;20522;-66
2023/12/04 21:01:50;;;;;;;8.45;3.55;;;;;;;0.92;66.19;98691.88;10492199;28;20051;-67
2023/12/04 21:06:52;;;;;;;8.75;3.58;;;;;;;1.06;65.91;98684.44;10510092;28;20040;-67
2023/12/04 21:11:54;;;;;;;8.45;4.20;;;;;;;1.11;66.17;98672.22;10505269;28;20044;-67
2023/12/04 21:16:56;;;;;;;7.43;4.07;;;;;;;1.06;66.09;98668.97;10510378;28;20055;-66
2023/12/04 21:22:02;;;;;;;8.40;4.35;;;;;;;1.14;66.02;98669.50;10509282;28;20507;-67
2023/12/04 21:27:04;;;;;;;9.32;4.03;;;;;;;1.34;66.01;98660.91;10509895;28;20055;-66
2023/12/04 21:32:07;;;;;;;7.50;4.20;;;;;;;1.43;65.46;98670.84;10510653;28;20127;-66
2023/12/04 21:37:09;;;;;;;6.13;3.53;;;;;;;1.36;65.59;98661.69;10513274;28;20134;-67
2023/12/04 21:42:10;;;;;;;6.78;3.13;;;;;;;1.26;65.74;98658.69;10517315;28;20120;-67
2023/12/04 21:47:13;;;;;;;8.43;4.00;;;;;;;1.19;66.05;98646.97;10516697;28;20047;-66
2023/12/04 21:52:16;;;;;;;6.97;3.88;;;;;;;0.98;66.72;98647.03;10499182;28;20109;-67
2023/12/04 21:57:18;;;;;;;6.72;3.40;;;;;;;0.92;67.22;98647.28;10500785;28;20055;-66
2023/12/04 22:02:20;;;;;;;10.60;4.38;;;;;;;0.82;67.70;98641.69;10517988;28;20118;-67
2023/12/04 22:07:22;;;;;;;8.90;4.50;;;;;;;0.86;67.50;98638.09;10518321;28;20044;-66
2023/12/04 22:12:24;;;;;;;6.85;3.70;;;;;;;0.90;67.54;98629.34;10520159;28;20155;-67
2023/12/04 22:17:26;;;;;;;8.73;3.45;;;;;;;0.92;67.37;98627.53;10518033;28;20055;-67
2023/12/04 22:22:29;;;;;;;9.23;4.60;;;;;;;0.97;67.39;98619.63;10516835;28;20047;-66
2023/12/04 22:27:31;;;;;;;7.55;4.13;;;;;;;1.04;67.26;98616.72;10519602;28;20150;-66
2023/12/04 22:32:33;;;;;;;6.53;3.55;;;;;;;1.06;67.31;98619.22;10500220;28;20129;-66
2023/12/04 22:37:36;;;;;;;6.88;3.97;;;;;;;1.13;67.33;98616.34;10518168;28;20036;-65
2023/12/04 22:42:39;;;;;;;6.43;3.28;;;;;;;1.38;66.86;98615.28;10518771;28;21425;-67
2023/12/04 22:47:42;;;;;;;8.55;4.10;;;;;;;1.55;66.53;98602.47;10518418;28;20118;-67
2023/12/04 22:52:44;;;;;;;8.40;3.92;;;;;;;1.40;66.75;98605.75;10515996;28;20050;-67
2023/12/04 22:57:48;;;;;;;9.20;4.28;;;;;;;1.38;66.90;98599.81;10519471;28;20036;-66
2023/12/04 23:02:51;;;;;;;7.93;3.67;;;;;;;1.44;66.54;98602.97;10518345;28;20052;-66
2023/12/04 23:07:53;;;;;;;7.60;4.22;;;;;;;1.28;67.20;98605.38;10517203;28;20032;-66
2023/12/04 23:12:56;;;;;;;6.43;3.50;;;;;;;1.30;66.92;98600.97;10515484;28;20044;-67
2023/12/04 23:17:58;;;;;;;10.55;4.00;;;;;;;1.35;67.17;98595.63;10518154;28;20095;-65
2023/12/04 23:23:00;;;;;;;8.02;4.07;;;;;;;1.36;67.24;98589.56;10494542;28;20613;-67
2023/12/04 23:28:03;;;;;;;7.15;3.75;;;;;;;1.44;66.75;98578.94;10516319;28;20139;-66
2023/12/04 23:33:06;;;;;;;7.97;4.07;;;;;;;1.48;66.70;98586.47;10516914;28;20040;-66
2023/12/04 23:38:09;;;;;;;9.63;4.55;;;;;;;1.30;67.18;98575.22;10512142;28;20040;-66
2023/12/04 23:43:12;;;;;;;6.47;3.13;;;;;;;1.34;67.42;98576.75;10516812;28;20117;-66
2023/12/04 23:48:14;;;;;;;7.80;4.05;;;;;;;1.40;67.39;98572.25;10513318;28;20043;-66